Chinook — WDG2195 — position and weather

sailwx.info

Track history (hours):
 
Tides and Currents Weather Stations Pressure Air Temp Water Temp Dewpoint Dewpoint Depression Visibility Wind Speed Wind Dir Waves Ship Positions

Chinook

Owner: Shaver Transportation Company, Portland, OR. More information available from US FCC via Universal Licensing System and Coast Guard Vessel Documentation Center.

Last reported at 2018-Feb-23 08:30 UTC. Time now 2018-Feb-23 08:38 UTC.
Position N 46°05' W 122°56'.

Length 24 m; draft 2.1 m.

Type: Tug. MMSI: 367513126.

Date/timePositionNaut miles runAvg speedWind from/ knotsBaromVisibWave heightAir tempDewpointWater temp
2018-Feb-23 08:30N 46°05' W 122°56'0 0.0
2018-Feb-23 07:57N 46°05' W 122°56'0 0.0
2018-Feb-23 07:12N 46°05' W 122°56'0 0.0
2018-Feb-23 06:54N 46°05' W 122°56'0 0.0
2018-Feb-23 06:24N 46°05' W 122°56'0 0.0
2018-Feb-23 05:57N 46°05' W 122°56'0 0.0
2018-Feb-23 05:27N 46°05' W 122°56'0 0.0
2018-Feb-23 04:54N 46°05' W 122°56'0 0.0
2018-Feb-23 04:30N 46°05' W 122°56'0 0.0
2018-Feb-23 04:00N 46°05' W 122°56'0 0.0
2018-Feb-23 03:27N 46°05' W 122°56'0 0.0
2018-Feb-23 02:54N 46°05' W 122°56'0 0.0
2018-Feb-23 02:21N 46°05' W 122°56'0 0.0
2018-Feb-23 02:00N 46°05' W 122°56'0 0.0
2018-Feb-23 00:54N 46°05' W 122°56'0 0.0
2018-Feb-23 00:18N 46°05' W 122°56'0 0.0
2018-Feb-22 23:33N 46°05' W 122°56'0 0.0
2018-Feb-22 23:27N 46°05' W 122°56'0 0.0
2018-Feb-22 23:00N 46°05' W 122°56'0 0.0
2018-Feb-22 22:30N 46°05' W 122°56'0 0.0
2018-Feb-22 22:00N 46°05' W 122°56'0 0.0
2018-Feb-22 21:21N 46°05' W 122°56'0 0.0
2018-Feb-22 21:00N 46°05' W 122°56'0 0.0
2018-Feb-22 20:30N 46°05' W 122°56'0 0.0
2018-Feb-22 19:54N 46°05' W 122°56'0 0.0
2018-Feb-22 19:30N 46°05' W 122°56'0 0.0
2018-Feb-22 18:33N 46°05' W 122°56'0 0.0
2018-Feb-22 18:24N 46°05' W 122°56'0 0.0
2018-Feb-22 18:00N 46°05' W 122°56'0 0.0
2018-Feb-22 17:30N 46°05' W 122°56'0 0.0
2018-Feb-22 16:57N 46°05' W 122°56'0 0.0
2018-Feb-22 16:24N 46°05' W 122°56'0 0.0
2018-Feb-22 16:00N 46°05' W 122°56'0 0.0
2018-Feb-22 15:27N 46°05' W 122°56'0 0.0
2018-Feb-22 15:00N 46°05' W 122°56'0 0.0
2018-Feb-22 14:30N 46°05' W 122°56'0 0.0
2018-Feb-22 14:00N 46°05' W 122°56'0 0.0
2018-Feb-22 13:27N 46°05' W 122°56'0 0.0
2018-Feb-22 12:57N 46°05' W 122°56'0 0.0
2018-Feb-22 12:21N 46°05' W 122°56'0 0.0
2018-Feb-22 12:00N 46°05' W 122°56'0 0.0
2018-Feb-22 11:18N 46°05' W 122°56'0 0.0
2018-Feb-22 10:57N 46°05' W 122°56'0 0.0
2018-Feb-22 10:30N 46°05' W 122°56'0 0.0
2018-Feb-22 09:57N 46°05' W 122°56'0 0.0
2018-Feb-22 09:30N 46°05' W 122°56'0 0.0
2018-Feb-22 09:00N 46°05' W 122°56'0 0.0
2018-Feb-22 08:30N 46°05' W 122°56'0 0.0
2018-Feb-22 08:00N 46°05' W 122°56'0 0.0
2018-Feb-22 07:24N 46°05' W 122°56'0 0.0
2018-Feb-22 07:00N 46°05' W 122°56'0 0.0
2018-Feb-22 06:30N 46°05' W 122°56'0 0.0
2018-Feb-22 06:00N 46°05' W 122°56'0 0.0
2018-Feb-22 05:30N 46°05' W 122°56'0 0.0
2018-Feb-22 04:57N 46°05' W 122°56'0 0.0
2018-Feb-22 04:30N 46°05' W 122°56'0 0.0
2018-Feb-22 03:57N 46°05' W 122°56'0 0.0
2018-Feb-22 03:30N 46°05' W 122°56'0 0.0
2018-Feb-22 03:00N 46°05' W 122°56'0 0.0
2018-Feb-22 02:30N 46°05' W 122°56'0 0.0
2018-Feb-22 02:00N 46°05' W 122°56'0 0.0
2018-Feb-22 01:30N 46°05' W 122°56'0 0.0
2018-Feb-22 00:57N 46°05' W 122°56'0 0.0
2018-Feb-22 00:27N 46°05' W 122°56'0 0.0
2018-Feb-21 23:57N 46°05' W 122°56'0 0.0
2018-Feb-21 23:21N 46°05' W 122°56'0 0.0
2018-Feb-21 23:00N 46°05' W 122°56'1 2.8
2018-Feb-21 22:30N 46°06' W 122°58'4 7.4
2018-Feb-21 22:00N 46°09' W 123°02'3 6.2
2018-Feb-21 21:30N 46°10' W 123°06'4 7.1
2018-Feb-21 21:00N 46°11' W 123°11'4 7.1
2018-Feb-21 20:30N 46°09' W 123°15'4 7.1
2018-Feb-21 20:00N 46°09' W 123°20'4 7.1
2018-Feb-21 19:31N 46°10' W 123°25'4 7.0
2018-Feb-21 19:00N 46°13' W 123°26'4 7.0
2018-Feb-21 18:26N 46°16' W 123°30'4 7.4
2018-Feb-21 17:52N 46°15' W 123°36'3 7.2
2018-Feb-21 17:29N 46°15' W 123°40'4 7.6
2018-Feb-21 17:01N 46°13' W 123°44'2 3.2
2018-Feb-21 16:29N 46°12' W 123°46'0 0.0
2018-Feb-21 15:59N 46°12' W 123°46'0 0.0
2018-Feb-21 15:29N 46°12' W 123°46'0 0.0
2018-Feb-21 14:59N 46°12' W 123°46'0 0.0
2018-Feb-21 14:29N 46°12' W 123°46'0 0.0
2018-Feb-21 13:56N 46°12' W 123°46'0 0.0
2018-Feb-21 13:29N 46°12' W 123°46'0 0.0
2018-Feb-21 12:59N 46°12' W 123°46'0 0.0
2018-Feb-21 12:29N 46°12' W 123°46'0 0.0
2018-Feb-21 11:59N 46°12' W 123°46'0 0.0
2018-Feb-21 11:29N 46°12' W 123°46'0 0.0
2018-Feb-21 10:59N 46°12' W 123°46'2 3.2
2018-Feb-21 10:31N 46°12' W 123°48'1 1.3
2018-Feb-21 10:00N 46°12' W 123°49'0 0.1
2018-Feb-21 09:31N 46°12' W 123°49'1 1.6
2018-Feb-21 09:00N 46°13' W 123°48'2 2.3
2018-Feb-21 08:14N 46°12' W 123°46'0 0.0
2018-Feb-21 07:53N 46°12' W 123°46'0 0.0
2018-Feb-21 07:26N 46°12' W 123°46'0 0.0
2018-Feb-21 06:32N 46°12' W 123°46'0 0.0
2018-Feb-21 06:29N 46°12' W 123°46'0 0.0
2018-Feb-21 05:59N 46°12' W 123°46'0 0.0
2018-Feb-21 05:29N 46°12' W 123°46'0 0.0
2018-Feb-21 04:59N 46°12' W 123°46'0 0.0
2018-Feb-21 04:29N 46°12' W 123°46'0 0.0
2018-Feb-21 03:59N 46°12' W 123°46'1 1.5
2018-Feb-21 03:30N 46°13' W 123°45'611.0
2018-Feb-21 03:00N 46°16' W 123°39'611.3
2018-Feb-21 02:30N 46°16' W 123°30'5 9.4
2018-Feb-21 02:00N 46°13' W 123°26'5 9.3
2018-Feb-21 01:30N 46°09' W 123°22'510.3
2018-Feb-21 01:00N 46°10' W 123°15'510.4
2018-Feb-21 00:30N 46°11' W 123°08'611.2
2018-Feb-21 00:00N 46°08' W 123°01'4 9.0
2018-Feb-20 23:30N 46°05' W 122°56'0 0.0
2018-Feb-20 22:59N 46°05' W 122°56'0 0.0
2018-Feb-20 22:20N 46°05' W 122°56'0 0.0
2018-Feb-20 21:59N 46°05' W 122°56'0 0.0
2018-Feb-20 21:29N 46°05' W 122°56'0 0.0
2018-Feb-20 20:56N 46°05' W 122°56'0 0.0
2018-Feb-20 20:29N 46°05' W 122°56'0 0.0
2018-Feb-20 19:59N 46°05' W 122°56'0 0.0
2018-Feb-20 19:29N 46°05' W 122°56'0 0.0
2018-Feb-20 18:50N 46°05' W 122°56'0 0.0
2018-Feb-20 18:29N 46°05' W 122°56'0 0.0
2018-Feb-20 17:56N 46°05' W 122°56'0 0.0
2018-Feb-20 17:23N 46°05' W 122°56'0 0.0
2018-Feb-20 16:59N 46°05' W 122°56'0 0.0
2018-Feb-20 16:20N 46°05' W 122°56'0 0.0
2018-Feb-20 15:59N 46°05' W 122°56'0 0.0
2018-Feb-20 15:23N 46°05' W 122°56'0 0.0
2018-Feb-20 14:59N 46°05' W 122°56'0 0.0
2018-Feb-20 14:26N 46°05' W 122°56'0 0.0
2018-Feb-20 13:56N 46°05' W 122°56'0 0.0
2018-Feb-20 13:23N 46°05' W 122°56'0 0.0
2018-Feb-20 12:59N 46°05' W 122°56'0 0.0
2018-Feb-20 12:23N 46°05' W 122°56'0 0.0
2018-Feb-20 11:59N 46°05' W 122°56'0 0.0
2018-Feb-20 11:29N 46°05' W 122°56'0 0.0
2018-Feb-20 10:56N 46°05' W 122°56'0 0.0
2018-Feb-20 10:23N 46°05' W 122°56'0 0.0
2018-Feb-20 09:56N 46°05' W 122°56'0 0.0
2018-Feb-20 09:29N 46°05' W 122°56'0 0.0
2018-Feb-20 08:56N 46°05' W 122°56'0 0.0
2018-Feb-20 08:29N 46°05' W 122°56'0 0.0
2018-Feb-20 07:59N 46°05' W 122°56'0 0.0
2018-Feb-20 07:29N 46°05' W 122°56'0 0.0
2018-Feb-20 06:59N 46°05' W 122°56'0 0.0
2018-Feb-20 06:29N 46°05' W 122°56'0 0.0
2018-Feb-20 05:59N 46°05' W 122°56'0 0.0
2018-Feb-20 05:29N 46°05' W 122°56'0 0.0
2018-Feb-20 04:59N 46°05' W 122°56'0 0.0
2018-Feb-20 04:29N 46°05' W 122°56'0 0.0
2018-Feb-20 03:59N 46°05' W 122°56'0 0.0
2018-Feb-20 03:26N 46°05' W 122°56'0 0.0
2018-Feb-20 02:56N 46°05' W 122°56'0 0.0
2018-Feb-20 02:17N 46°05' W 122°56'0 0.0
2018-Feb-20 01:59N 46°05' W 122°56'0 0.0
2018-Feb-20 01:29N 46°05' W 122°56'0 0.0
2018-Feb-20 00:53N 46°05' W 122°56'0 0.0
2018-Feb-20 00:26N 46°05' W 122°56'0 0.0
2018-Feb-19 23:50N 46°05' W 122°56'0 0.0
2018-Feb-19 23:29N 46°05' W 122°56'0 0.0
2018-Feb-19 22:59N 46°05' W 122°56'0 0.0
2018-Feb-19 22:29N 46°05' W 122°56'0 0.0
2018-Feb-19 21:53N 46°05' W 122°56'0 0.0
2018-Feb-19 21:17N 46°05' W 122°56'0 0.0
2018-Feb-19 20:59N 46°05' W 122°56'0 0.0
2018-Feb-19 20:29N 46°05' W 122°56'0 0.0
2018-Feb-19 19:56N 46°05' W 122°56'0 0.0
2018-Feb-19 18:56N 46°05' W 122°56'0 0.0
2018-Feb-19 18:05N 46°05' W 122°56'0 0.1
2018-Feb-19 17:59N 46°05' W 122°56'0 0.0
2018-Feb-19 17:26N 46°05' W 122°56'0 0.0
2018-Feb-19 16:59N 46°05' W 122°56'0 0.0
2018-Feb-19 16:29N 46°05' W 122°56'0 0.0
2018-Feb-19 15:59N 46°05' W 122°56'0 0.0
2018-Feb-19 15:26N 46°05' W 122°56'0 0.0
2018-Feb-19 14:59N 46°05' W 122°56'0 0.0
2018-Feb-19 14:17N 46°05' W 122°56'0 0.0
2018-Feb-19 13:59N 46°05' W 122°56'0 0.0
2018-Feb-19 13:29N 46°05' W 122°56'0 0.0
2018-Feb-19 12:59N 46°05' W 122°56'0 0.0
2018-Feb-19 12:20N 46°05' W 122°56'0 0.0
2018-Feb-19 11:53N 46°05' W 122°56'0 0.0
2018-Feb-19 10:44N 46°05' W 122°56'0 0.0
2018-Feb-19 10:29N 46°05' W 122°56'0 0.0
2018-Feb-19 09:59N 46°05' W 122°56'0 0.0
2018-Feb-19 09:08N 46°05' W 122°56'0 0.0
2018-Feb-19 08:59N 46°05' W 122°56'0 0.0
2018-Feb-19 08:23N 46°05' W 122°56'0 0.0
2018-Feb-19 07:41N 46°05' W 122°56'0 0.0
2018-Feb-19 07:29N 46°05' W 122°56'0 0.0
2018-Feb-19 06:56N 46°05' W 122°56'0 0.0
2018-Feb-19 06:29N 46°05' W 122°56'0 0.0
2018-Feb-19 05:59N 46°05' W 122°56'0 0.0
2018-Feb-19 05:11N 46°05' W 122°56'0 0.0
2018-Feb-19 04:59N 46°05' W 122°56'0 0.0
2018-Feb-19 04:26N 46°05' W 122°56'0 0.0
2018-Feb-19 03:59N 46°05' W 122°56'0 0.0
2018-Feb-19 03:29N 46°05' W 122°56'0 0.0
2018-Feb-19 02:59N 46°05' W 122°56'0 0.0
2018-Feb-19 02:29N 46°05' W 122°56'0 0.0
2018-Feb-19 01:59N 46°05' W 122°56'0 0.0
2018-Feb-19 01:23N 46°05' W 122°56'0 0.0
2018-Feb-19 00:44N 46°05' W 122°56'0 0.0
2018-Feb-19 00:23N 46°05' W 122°56'0 0.0
2018-Feb-18 23:59N 46°05' W 122°56'0 0.0
2018-Feb-18 23:29N 46°05' W 122°56'0 0.0
2018-Feb-18 22:56N 46°05' W 122°56'0 0.0
2018-Feb-18 22:29N 46°05' W 122°56'0 0.0
2018-Feb-18 21:56N 46°05' W 122°56'0 0.0
2018-Feb-18 21:20N 46°05' W 122°56'0 0.0
2018-Feb-18 20:59N 46°05' W 122°56'0 0.0
2018-Feb-18 20:26N 46°05' W 122°56'0 0.0
2018-Feb-18 19:56N 46°05' W 122°56'0 0.0
2018-Feb-18 19:26N 46°05' W 122°56'0 0.0
2018-Feb-18 18:59N 46°05' W 122°56'0 0.0
2018-Feb-18 18:26N 46°05' W 122°56'0 0.0
2018-Feb-18 17:59N 46°05' W 122°56'0 0.0
2018-Feb-18 17:29N 46°05' W 122°56'0 0.0
2018-Feb-18 16:59N 46°05' W 122°56'0 0.0
2018-Feb-18 16:29N 46°05' W 122°56'0 0.0
2018-Feb-18 15:59N 46°05' W 122°56'0 0.0
2018-Feb-18 15:29N 46°05' W 122°56'0 0.0
2018-Feb-18 14:56N 46°05' W 122°56'0 0.0
2018-Feb-18 14:29N 46°05' W 122°56'0 0.0
2018-Feb-18 13:59N 46°05' W 122°56'0 0.0
2018-Feb-18 13:29N 46°05' W 122°56'0 0.0
2018-Feb-18 12:59N 46°05' W 122°56'0 0.0
2018-Feb-18 12:29N 46°05' W 122°56'0 0.0
2018-Feb-18 11:59N 46°05' W 122°56'0 0.0
2018-Feb-18 11:29N 46°05' W 122°56'0 0.0
2018-Feb-18 10:56N 46°05' W 122°56'0 0.0
2018-Feb-18 10:29N 46°05' W 122°56'0 0.0
2018-Feb-18 09:47N 46°05' W 122°56'0 0.0
2018-Feb-18 09:29N 46°05' W 122°56'0 0.0
2018-Feb-18 08:56N 46°05' W 122°56'0 0.0
2018-Feb-18 08:29N 46°05' W 122°56'0 0.0
2018-Feb-18 07:44N 46°05' W 122°56'0 0.0
2018-Feb-18 07:26N 46°05' W 122°56'0 0.0
2018-Feb-18 06:59N 46°05' W 122°56'0 0.0
2018-Feb-18 06:29N 46°05' W 122°56'0 0.0
2018-Feb-18 05:59N 46°05' W 122°56'0 0.0
2018-Feb-18 05:26N 46°05' W 122°56'0 0.0
2018-Feb-18 04:53N 46°05' W 122°56'0 0.0
2018-Feb-18 04:29N 46°05' W 122°56'0 0.0
2018-Feb-18 03:59N 46°05' W 122°56'0 0.0
2018-Feb-18 03:29N 46°05' W 122°56'0 0.0
2018-Feb-18 02:59N 46°05' W 122°56'0 0.0
2018-Feb-18 02:26N 46°05' W 122°56'0 0.0
2018-Feb-18 01:59N 46°05' W 122°56'0 0.0
2018-Feb-18 01:29N 46°05' W 122°56'0 0.0
2018-Feb-18 00:59N 46°05' W 122°56'0 0.0
2018-Feb-18 00:11N 46°05' W 122°56'0 0.0
2018-Feb-17 23:47N 46°05' W 122°56'0 0.0
2018-Feb-17 23:30N 46°05' W 122°56'0 0.0
2018-Feb-17 22:56N 46°05' W 122°56'0 0.0
2018-Feb-17 22:29N 46°05' W 122°56'0 0.0
2018-Feb-17 21:59N 46°05' W 122°56'0 0.0
2018-Feb-17 21:29N 46°05' W 122°56'0 0.0
2018-Feb-17 20:59N 46°05' W 122°56'0 0.0
2018-Feb-17 20:29N 46°05' W 122°56'0 0.0
2018-Feb-17 19:50N 46°05' W 122°56'0 0.0
2018-Feb-17 19:26N 46°05' W 122°56'0 0.0
2018-Feb-17 18:29N 46°05' W 122°56'0 0.0
2018-Feb-17 18:00N 46°05' W 122°56'0 0.0
2018-Feb-17 17:29N 46°05' W 122°56'0 0.0
2018-Feb-17 16:59N 46°05' W 122°56'0 0.0
2018-Feb-17 16:29N 46°05' W 122°56'0 0.0
2018-Feb-17 15:56N 46°05' W 122°56'0 0.0
2018-Feb-17 15:28N 46°05' W 122°56'0 0.0
2018-Feb-17 14:59N 46°05' W 122°56'0 0.0
2018-Feb-17 14:20N 46°05' W 122°56'0 0.0
2018-Feb-17 13:59N 46°05' W 122°56'0 0.0
2018-Feb-17 13:26N 46°05' W 122°56'0 0.0
2018-Feb-17 12:35N 46°05' W 122°56'0 0.0
2018-Feb-17 10:23N 46°05' W 122°56'0 0.0
2018-Feb-17 09:59N 46°05' W 122°56'0 0.0
2018-Feb-17 09:26N 46°05' W 122°56'0 0.0
2018-Feb-17 08:56N 46°05' W 122°56'0 0.0
2018-Feb-17 08:29N 46°05' W 122°56'0 0.0
2018-Feb-17 07:47N 46°05' W 122°56'0 0.0
2018-Feb-17 07:29N 46°05' W 122°56'0 0.0
2018-Feb-17 06:59N 46°05' W 122°56'0 0.0
2018-Feb-17 06:29N 46°05' W 122°56'0 0.0
2018-Feb-17 05:59N 46°05' W 122°56'0 0.0
2018-Feb-17 05:29N 46°05' W 122°56'0 0.0
2018-Feb-17 04:55N 46°05' W 122°56'0 0.0
2018-Feb-17 04:26N 46°05' W 122°56'0 0.0
2018-Feb-17 03:35N 46°05' W 122°56'0 0.0
2018-Feb-17 03:14N 46°05' W 122°56'0 0.0
2018-Feb-17 02:55N 46°05' W 122°56'0 0.0
2018-Feb-17 02:26N 46°05' W 122°56'0 0.0
2018-Feb-17 01:59N 46°05' W 122°56'0 0.0
2018-Feb-17 01:16N 46°05' W 122°56'0 0.0
2018-Feb-17 00:59N 46°05' W 122°56'0 0.0
2018-Feb-17 00:29N 46°05' W 122°56'0 0.0
2018-Feb-16 23:59N 46°05' W 122°56'0 0.0
2018-Feb-16 23:26N 46°05' W 122°56'0 0.0
2018-Feb-16 22:56N 46°05' W 122°56'0 0.0
2018-Feb-16 22:29N 46°05' W 122°56'0 0.0
2018-Feb-16 21:53N 46°05' W 122°56'0 0.0
2018-Feb-16 21:28N 46°05' W 122°56'0 0.0
2018-Feb-16 20:44N 46°05' W 122°56'0 0.0
2018-Feb-16 20:16N 46°05' W 122°56'0 0.0
2018-Feb-16 19:44N 46°05' W 122°56'0 0.0
2018-Feb-16 19:20N 46°05' W 122°56'0 0.0
2018-Feb-16 18:58N 46°05' W 122°56'0 0.0
2018-Feb-16 18:28N 46°05' W 122°56'0 0.0
2018-Feb-16 17:59N 46°05' W 122°56'0 0.0
2018-Feb-16 17:29N 46°05' W 122°56'0 0.0
2018-Feb-16 16:59N 46°05' W 122°56'0 0.0
2018-Feb-16 16:04N 46°05' W 122°56'0 0.0
2018-Feb-16 15:49N 46°05' W 122°56'0 0.0
2018-Feb-16 15:29N 46°05' W 122°56'0 0.0
2018-Feb-16 14:58N 46°05' W 122°56'0 0.0
2018-Feb-16 14:23N 46°05' W 122°56'0 0.0
2018-Feb-16 13:59N 46°05' W 122°56'0 0.0
2018-Feb-16 13:28N 46°05' W 122°56'0 0.0
2018-Feb-16 12:58N 46°05' W 122°56'0 0.0
2018-Feb-16 12:28N 46°05' W 122°56'0 0.0
2018-Feb-16 11:47N 46°05' W 122°56'0 0.0
2018-Feb-16 11:29N 46°05' W 122°56'0 0.0
2018-Feb-16 10:59N 46°05' W 122°56'0 0.0
2018-Feb-16 10:22N 46°05' W 122°56'0 0.0
2018-Feb-16 08:58N 46°05' W 122°56'0 0.0
2018-Feb-16 08:28N 46°05' W 122°56'0 0.0
2018-Feb-16 07:58N 46°05' W 122°56'0 0.0
2018-Feb-16 07:28N 46°05' W 122°56'0 0.0
2018-Feb-16 06:58N 46°05' W 122°56'0 0.0
2018-Feb-16 06:29N 46°05' W 122°56'0 0.0
2018-Feb-16 05:58N 46°05' W 122°56'0 0.0
2018-Feb-16 05:25N 46°05' W 122°56'0 0.0
2018-Feb-16 04:52N 46°05' W 122°56'0 0.0
2018-Feb-16 04:28N 46°05' W 122°56'0 0.0
2018-Feb-16 03:49N 46°05' W 122°56'0 0.0
2018-Feb-16 03:28N 46°05' W 122°56'0 0.0
2018-Feb-16 02:25N 46°05' W 122°56'0 0.0
2018-Feb-16 01:58N 46°05' W 122°56'0 0.0
2018-Feb-16 01:25N 46°05' W 122°56'0 0.0
2018-Feb-16 00:58N 46°05' W 122°56'0 0.0
2018-Feb-16 00:19N 46°05' W 122°56'0 0.0
2018-Feb-15 23:55N 46°05' W 122°56'0 0.0
2018-Feb-15 23:28N 46°05' W 122°56'0 0.0
2018-Feb-15 22:58N 46°05' W 122°56'0 0.0
2018-Feb-15 22:25N 46°05' W 122°56'0 0.0
2018-Feb-15 21:52N 46°05' W 122°56'0 0.0
2018-Feb-15 21:28N 46°05' W 122°56'0 0.0
2018-Feb-15 20:58N 46°05' W 122°56'0 0.0
2018-Feb-15 20:10N 46°05' W 122°56'0 0.0
2018-Feb-15 19:52N 46°05' W 122°56'0 0.0
2018-Feb-15 19:25N 46°05' W 122°56'0 0.0
2018-Feb-15 18:53N 46°05' W 122°56'0 0.0
2018-Feb-15 18:13N 46°05' W 122°56'0 0.0
2018-Feb-15 17:58N 46°05' W 122°56'0 0.0
2018-Feb-15 17:19N 46°05' W 122°56'0 0.0
2018-Feb-15 16:55N 46°05' W 122°56'0 0.0
2018-Feb-15 16:28N 46°05' W 122°56'0 0.0
2018-Feb-15 15:58N 46°05' W 122°56'0 0.0
2018-Feb-15 15:28N 46°05' W 122°56'0 0.0
2018-Feb-15 14:58N 46°05' W 122°56'0 0.0
2018-Feb-15 14:19N 46°05' W 122°56'0 0.0
2018-Feb-15 13:46N 46°05' W 122°56'0 0.0
2018-Feb-15 13:13N 46°05' W 122°56'0 0.0
2018-Feb-15 12:55N 46°05' W 122°56'0 0.0
2018-Feb-15 12:28N 46°05' W 122°56'0 0.0
2018-Feb-15 10:52N 46°05' W 122°56'0 0.0
2018-Feb-15 10:10N 46°05' W 122°56'0 0.0
2018-Feb-15 09:58N 46°05' W 122°56'0 0.0
2018-Feb-15 09:28N 46°05' W 122°56'0 0.0
2018-Feb-15 08:58N 46°05' W 122°56'0 0.0
2018-Feb-15 08:25N 46°05' W 122°56'0 0.0
2018-Feb-15 07:55N 46°05' W 122°56'0 0.0
2018-Feb-15 07:22N 46°05' W 122°56'0 0.0
2018-Feb-15 06:52N 46°05' W 122°56'0 0.0
2018-Feb-15 06:25N 46°05' W 122°56'0 0.0
2018-Feb-15 05:58N 46°05' W 122°56'0 0.0
2018-Feb-15 05:28N 46°05' W 122°56'0 0.0
2018-Feb-15 04:58N 46°05' W 122°56'0 0.0
2018-Feb-15 04:28N 46°05' W 122°56'0 0.0
2018-Feb-15 03:49N 46°05' W 122°56'0 0.0
2018-Feb-15 03:28N 46°05' W 122°56'0 0.0
2018-Feb-15 02:55N 46°05' W 122°56'0 0.0
2018-Feb-15 02:16N 46°05' W 122°56'0 0.0
2018-Feb-15 01:55N 46°05' W 122°56'0 0.0
2018-Feb-15 01:28N 46°05' W 122°56'0 0.0
2018-Feb-15 00:55N 46°05' W 122°56'0 0.0
2018-Feb-15 00:28N 46°05' W 122°56'0 0.0
2018-Feb-14 23:55N 46°05' W 122°56'0 0.0
2018-Feb-14 23:28N 46°05' W 122°56'0 0.0
2018-Feb-14 22:58N 46°05' W 122°56'0 0.0
2018-Feb-14 22:25N 46°05' W 122°56'0 0.0
2018-Feb-14 21:52N 46°05' W 122°56'0 0.0
2018-Feb-14 21:28N 46°05' W 122°56'0 0.0
2018-Feb-14 20:55N 46°05' W 122°56'0 0.0
2018-Feb-14 20:22N 46°05' W 122°56'0 0.0
2018-Feb-14 19:52N 46°05' W 122°56'0 0.0
2018-Feb-14 19:22N 46°05' W 122°56'0 0.0
2018-Feb-14 18:52N 46°05' W 122°56'0 0.0
2018-Feb-14 18:28N 46°05' W 122°56'0 0.0
2018-Feb-14 17:55N 46°05' W 122°56'0 0.0
2018-Feb-14 17:28N 46°05' W 122°56'0 0.0
2018-Feb-14 16:49N 46°05' W 122°56'0 0.0
2018-Feb-14 16:28N 46°05' W 122°56'0 0.0
2018-Feb-14 15:37N 46°05' W 122°56'0 0.1
2018-Feb-14 15:25N 46°05' W 122°56'0 0.0
2018-Feb-14 14:58N 46°05' W 122°56'0 0.0
2018-Feb-14 14:28N 46°05' W 122°56'0 0.0
2018-Feb-14 13:58N 46°05' W 122°56'0 0.0
2018-Feb-14 13:25N 46°05' W 122°56'0 0.0
2018-Feb-14 12:49N 46°05' W 122°56'0 0.0
2018-Feb-14 12:25N 46°05' W 122°56'0 0.0
2018-Feb-14 11:49N 46°05' W 122°56'0 0.0
2018-Feb-14 11:25N 46°05' W 122°56'0 0.0
2018-Feb-14 10:46N 46°05' W 122°56'0 0.0
2018-Feb-14 10:25N 46°05' W 122°56'0 0.0
2018-Feb-14 09:58N 46°05' W 122°56'0 0.0
2018-Feb-14 09:28N 46°05' W 122°56'0 0.0
2018-Feb-14 08:58N 46°05' W 122°56'0 0.0
2018-Feb-14 08:28N 46°05' W 122°56'0 0.0
2018-Feb-14 07:58N 46°05' W 122°56'0 0.0
2018-Feb-14 07:28N 46°05' W 122°56'0 0.0
2018-Feb-14 06:58N 46°05' W 122°56'0 0.0
2018-Feb-14 06:25N 46°05' W 122°56'0 0.0
2018-Feb-14 05:58N 46°05' W 122°56'0 0.0
2018-Feb-14 05:28N 46°05' W 122°56'0 0.0
2018-Feb-14 04:52N 46°05' W 122°56'0 0.0
2018-Feb-14 04:28N 46°05' W 122°56'0 0.0
2018-Feb-14 03:58N 46°05' W 122°56'0 0.0
2018-Feb-14 03:28N 46°05' W 122°56'0 0.0
2018-Feb-14 02:55N 46°05' W 122°56'0 0.0
2018-Feb-14 02:25N 46°05' W 122°56'0 0.0
2018-Feb-14 01:58N 46°05' W 122°56'0 0.0
2018-Feb-14 01:28N 46°05' W 122°56'0 0.0
2018-Feb-14 00:58N 46°05' W 122°56'0 0.0
2018-Feb-14 00:10N 46°05' W 122°56'0 0.0
2018-Feb-13 23:58N 46°05' W 122°56'0 0.0
2018-Feb-13 23:22N 46°05' W 122°56'0 0.0
2018-Feb-13 22:55N 46°05' W 122°56'0 0.0
2018-Feb-13 22:28N 46°05' W 122°56'0 0.0
2018-Feb-13 21:19N 46°05' W 122°56'0 0.0
2018-Feb-13 20:34N 46°05' W 122°56'0 0.1
2018-Feb-13 20:28N 46°05' W 122°56'0 0.0
2018-Feb-13 19:58N 46°05' W 122°56'0 0.0
2018-Feb-13 19:28N 46°05' W 122°56'0 0.0
2018-Feb-13 18:55N 46°05' W 122°56'0 0.0
2018-Feb-13 18:16N 46°05' W 122°56'0 0.0
2018-Feb-13 17:13N 46°05' W 122°56'0 0.0
2018-Feb-13 16:55N 46°05' W 122°56'0 0.0
2018-Feb-13 16:28N 46°05' W 122°56'0 0.0
2018-Feb-13 15:40N 46°05' W 122°56'0 0.0
2018-Feb-13 15:19N 46°05' W 122°56'0 0.0
2018-Feb-13 14:49N 46°05' W 122°56'0 0.0
2018-Feb-13 14:28N 46°05' W 122°56'0 0.0
2018-Feb-13 13:58N 46°05' W 122°56'0 0.0
2018-Feb-13 13:28N 46°05' W 122°56'0 0.0
2018-Feb-13 12:43N 46°05' W 122°56'0 0.0
2018-Feb-13 12:28N 46°05' W 122°56'0 0.0
2018-Feb-13 11:55N 46°05' W 122°56'0 0.0
2018-Feb-13 11:28N 46°05' W 122°56'0 0.0
2018-Feb-13 10:52N 46°05' W 122°56'0 0.0
2018-Feb-13 10:22N 46°05' W 122°56'0 0.0
2018-Feb-13 09:58N 46°05' W 122°56'0 0.0
2018-Feb-13 09:28N 46°05' W 122°56'0 0.0
2018-Feb-13 08:58N 46°05' W 122°56'  
Track history (hours):
 
Tides and Currents Weather Stations Pressure Air Temp Water Temp Dewpoint Dewpoint Depression Visibility Wind Speed Wind Dir Waves Ship Positions

Chinook

Owner: Shaver Transportation Company, Portland, OR. More information available from US FCC via Universal Licensing System and Coast Guard Vessel Documentation Center.

Last reported at 2018-Feb-23 08:30 UTC. Time now 2018-Feb-23 08:38 UTC.
Position N 46°05' W 122°56'.

Length 24 m; draft 2.1 m.

Type: Tug. MMSI: 367513126.

Date/timePositionNaut miles runAvg speedWind from/ knotsBaromVisibWave heightAir tempDewpointWater temp
2018-Feb-23 08:30N 46°05' W 122°56'0 0.0
2018-Feb-23 07:57N 46°05' W 122°56'0 0.0
2018-Feb-23 07:12N 46°05' W 122°56'0 0.0
2018-Feb-23 06:54N 46°05' W 122°56'0 0.0
2018-Feb-23 06:24N 46°05' W 122°56'0 0.0
2018-Feb-23 05:57N 46°05' W 122°56'0 0.0
2018-Feb-23 05:27N 46°05' W 122°56'0 0.0
2018-Feb-23 04:54N 46°05' W 122°56'0 0.0
2018-Feb-23 04:30N 46°05' W 122°56'0 0.0
2018-Feb-23 04:00N 46°05' W 122°56'0 0.0
2018-Feb-23 03:27N 46°05' W 122°56'0 0.0
2018-Feb-23 02:54N 46°05' W 122°56'0 0.0
2018-Feb-23 02:21N 46°05' W 122°56'0 0.0
2018-Feb-23 02:00N 46°05' W 122°56'0 0.0
2018-Feb-23 00:54N 46°05' W 122°56'0 0.0
2018-Feb-23 00:18N 46°05' W 122°56'0 0.0
2018-Feb-22 23:33N 46°05' W 122°56'0 0.0
2018-Feb-22 23:27N 46°05' W 122°56'0 0.0
2018-Feb-22 23:00N 46°05' W 122°56'0 0.0
2018-Feb-22 22:30N 46°05' W 122°56'0 0.0
2018-Feb-22 22:00N 46°05' W 122°56'0 0.0
2018-Feb-22 21:21N 46°05' W 122°56'0 0.0
2018-Feb-22 21:00N 46°05' W 122°56'0 0.0
2018-Feb-22 20:30N 46°05' W 122°56'0 0.0
2018-Feb-22 19:54N 46°05' W 122°56'0 0.0
2018-Feb-22 19:30N 46°05' W 122°56'0 0.0
2018-Feb-22 18:33N 46°05' W 122°56'0 0.0
2018-Feb-22 18:24N 46°05' W 122°56'0 0.0
2018-Feb-22 18:00N 46°05' W 122°56'0 0.0
2018-Feb-22 17:30N 46°05' W 122°56'0 0.0
2018-Feb-22 16:57N 46°05' W 122°56'0 0.0
2018-Feb-22 16:24N 46°05' W 122°56'0 0.0
2018-Feb-22 16:00N 46°05' W 122°56'0 0.0
2018-Feb-22 15:27N 46°05' W 122°56'0 0.0
2018-Feb-22 15:00N 46°05' W 122°56'0 0.0
2018-Feb-22 14:30N 46°05' W 122°56'0 0.0
2018-Feb-22 14:00N 46°05' W 122°56'0 0.0
2018-Feb-22 13:27N 46°05' W 122°56'0 0.0
2018-Feb-22 12:57N 46°05' W 122°56'0 0.0
2018-Feb-22 12:21N 46°05' W 122°56'0 0.0
2018-Feb-22 12:00N 46°05' W 122°56'0 0.0
2018-Feb-22 11:18N 46°05' W 122°56'0 0.0
2018-Feb-22 10:57N 46°05' W 122°56'0 0.0
2018-Feb-22 10:30N 46°05' W 122°56'0 0.0
2018-Feb-22 09:57N 46°05' W 122°56'0 0.0
2018-Feb-22 09:30N 46°05' W 122°56'0 0.0
2018-Feb-22 09:00N 46°05' W 122°56'0 0.0
2018-Feb-22 08:30N 46°05' W 122°56'0 0.0
2018-Feb-22 08:00N 46°05' W 122°56'0 0.0
2018-Feb-22 07:24N 46°05' W 122°56'0 0.0
2018-Feb-22 07:00N 46°05' W 122°56'0 0.0
2018-Feb-22 06:30N 46°05' W 122°56'0 0.0
2018-Feb-22 06:00N 46°05' W 122°56'0 0.0
2018-Feb-22 05:30N 46°05' W 122°56'0 0.0
2018-Feb-22 04:57N 46°05' W 122°56'0 0.0
2018-Feb-22 04:30N 46°05' W 122°56'0 0.0
2018-Feb-22 03:57N 46°05' W 122°56'0 0.0
2018-Feb-22 03:30N 46°05' W 122°56'0 0.0
2018-Feb-22 03:00N 46°05' W 122°56'0 0.0
2018-Feb-22 02:30N 46°05' W 122°56'0 0.0
2018-Feb-22 02:00N 46°05' W 122°56'0 0.0
2018-Feb-22 01:30N 46°05' W 122°56'0 0.0
2018-Feb-22 00:57N 46°05' W 122°56'0 0.0
2018-Feb-22 00:27N 46°05' W 122°56'0 0.0
2018-Feb-21 23:57N 46°05' W 122°56'0 0.0
2018-Feb-21 23:21N 46°05' W 122°56'0 0.0
2018-Feb-21 23:00N 46°05' W 122°56'1 2.8
2018-Feb-21 22:30N 46°06' W 122°58'4 7.4
2018-Feb-21 22:00N 46°09' W 123°02'3 6.2
2018-Feb-21 21:30N 46°10' W 123°06'4 7.1
2018-Feb-21 21:00N 46°11' W 123°11'4 7.1
2018-Feb-21 20:30N 46°09' W 123°15'4 7.1
2018-Feb-21 20:00N 46°09' W 123°20'4 7.1
2018-Feb-21 19:31N 46°10' W 123°25'4 7.0
2018-Feb-21 19:00N 46°13' W 123°26'4 7.0
2018-Feb-21 18:26N 46°16' W 123°30'4 7.4
2018-Feb-21 17:52N 46°15' W 123°36'3 7.2
2018-Feb-21 17:29N 46°15' W 123°40'4 7.6
2018-Feb-21 17:01N 46°13' W 123°44'2 3.2
2018-Feb-21 16:29N 46°12' W 123°46'0 0.0
2018-Feb-21 15:59N 46°12' W 123°46'0 0.0
2018-Feb-21 15:29N 46°12' W 123°46'0 0.0
2018-Feb-21 14:59N 46°12' W 123°46'0 0.0
2018-Feb-21 14:29N 46°12' W 123°46'0 0.0
2018-Feb-21 13:56N 46°12' W 123°46'0 0.0
2018-Feb-21 13:29N 46°12' W 123°46'0 0.0
2018-Feb-21 12:59N 46°12' W 123°46'0 0.0
2018-Feb-21 12:29N 46°12' W 123°46'0 0.0
2018-Feb-21 11:59N 46°12' W 123°46'0 0.0
2018-Feb-21 11:29N 46°12' W 123°46'0 0.0
2018-Feb-21 10:59N 46°12' W 123°46'2 3.2
2018-Feb-21 10:31N 46°12' W 123°48'1 1.3
2018-Feb-21 10:00N 46°12' W 123°49'0 0.1
2018-Feb-21 09:31N 46°12' W 123°49'1 1.6
2018-Feb-21 09:00N 46°13' W 123°48'2 2.3
2018-Feb-21 08:14N 46°12' W 123°46'0 0.0
2018-Feb-21 07:53N 46°12' W 123°46'0 0.0
2018-Feb-21 07:26N 46°12' W 123°46'0 0.0
2018-Feb-21 06:32N 46°12' W 123°46'0 0.0
2018-Feb-21 06:29N 46°12' W 123°46'0 0.0
2018-Feb-21 05:59N 46°12' W 123°46'0 0.0
2018-Feb-21 05:29N 46°12' W 123°46'0 0.0
2018-Feb-21 04:59N 46°12' W 123°46'0 0.0
2018-Feb-21 04:29N 46°12' W 123°46'0 0.0
2018-Feb-21 03:59N 46°12' W 123°46'1 1.5
2018-Feb-21 03:30N 46°13' W 123°45'611.0
2018-Feb-21 03:00N 46°16' W 123°39'611.3
2018-Feb-21 02:30N 46°16' W 123°30'5 9.4
2018-Feb-21 02:00N 46°13' W 123°26'5 9.3
2018-Feb-21 01:30N 46°09' W 123°22'510.3
2018-Feb-21 01:00N 46°10' W 123°15'510.4
2018-Feb-21 00:30N 46°11' W 123°08'611.2
2018-Feb-21 00:00N 46°08' W 123°01'4 9.0
2018-Feb-20 23:30N 46°05' W 122°56'0 0.0
2018-Feb-20 22:59N 46°05' W 122°56'0 0.0
2018-Feb-20 22:20N 46°05' W 122°56'0 0.0
2018-Feb-20 21:59N 46°05' W 122°56'0 0.0
2018-Feb-20 21:29N 46°05' W 122°56'0 0.0
2018-Feb-20 20:56N 46°05' W 122°56'0 0.0
2018-Feb-20 20:29N 46°05' W 122°56'0 0.0
2018-Feb-20 19:59N 46°05' W 122°56'0 0.0
2018-Feb-20 19:29N 46°05' W 122°56'0 0.0
2018-Feb-20 18:50N 46°05' W 122°56'0 0.0
2018-Feb-20 18:29N 46°05' W 122°56'0 0.0
2018-Feb-20 17:56N 46°05' W 122°56'0 0.0
2018-Feb-20 17:23N 46°05' W 122°56'0 0.0
2018-Feb-20 16:59N 46°05' W 122°56'0 0.0
2018-Feb-20 16:20N 46°05' W 122°56'0 0.0
2018-Feb-20 15:59N 46°05' W 122°56'0 0.0
2018-Feb-20 15:23N 46°05' W 122°56'0 0.0
2018-Feb-20 14:59N 46°05' W 122°56'0 0.0
2018-Feb-20 14:26N 46°05' W 122°56'0 0.0
2018-Feb-20 13:56N 46°05' W 122°56'0 0.0
2018-Feb-20 13:23N 46°05' W 122°56'0 0.0
2018-Feb-20 12:59N 46°05' W 122°56'0 0.0
2018-Feb-20 12:23N 46°05' W 122°56'0 0.0
2018-Feb-20 11:59N 46°05' W 122°56'0 0.0
2018-Feb-20 11:29N 46°05' W 122°56'0 0.0
2018-Feb-20 10:56N 46°05' W 122°56'0 0.0
2018-Feb-20 10:23N 46°05' W 122°56'0 0.0
2018-Feb-20 09:56N 46°05' W 122°56'0 0.0
2018-Feb-20 09:29N 46°05' W 122°56'0 0.0
2018-Feb-20 08:56N 46°05' W 122°56'0 0.0
2018-Feb-20 08:29N 46°05' W 122°56'0 0.0
2018-Feb-20 07:59N 46°05' W 122°56'0 0.0
2018-Feb-20 07:29N 46°05' W 122°56'0 0.0
2018-Feb-20 06:59N 46°05' W 122°56'0 0.0
2018-Feb-20 06:29N 46°05' W 122°56'0 0.0
2018-Feb-20 05:59N 46°05' W 122°56'0 0.0
2018-Feb-20 05:29N 46°05' W 122°56'0 0.0
2018-Feb-20 04:59N 46°05' W 122°56'0 0.0
2018-Feb-20 04:29N 46°05' W 122°56'0 0.0
2018-Feb-20 03:59N 46°05' W 122°56'0 0.0
2018-Feb-20 03:26N 46°05' W 122°56'0 0.0
2018-Feb-20 02:56N 46°05' W 122°56'0 0.0
2018-Feb-20 02:17N 46°05' W 122°56'0 0.0
2018-Feb-20 01:59N 46°05' W 122°56'0 0.0
2018-Feb-20 01:29N 46°05' W 122°56'0 0.0
2018-Feb-20 00:53N 46°05' W 122°56'0 0.0
2018-Feb-20 00:26N 46°05' W 122°56'0 0.0
2018-Feb-19 23:50N 46°05' W 122°56'0 0.0
2018-Feb-19 23:29N 46°05' W 122°56'0 0.0
2018-Feb-19 22:59N 46°05' W 122°56'0 0.0
2018-Feb-19 22:29N 46°05' W 122°56'0 0.0
2018-Feb-19 21:53N 46°05' W 122°56'0 0.0
2018-Feb-19 21:17N 46°05' W 122°56'0 0.0
2018-Feb-19 20:59N 46°05' W 122°56'0 0.0
2018-Feb-19 20:29N 46°05' W 122°56'0 0.0
2018-Feb-19 19:56N 46°05' W 122°56'0 0.0
2018-Feb-19 18:56N 46°05' W 122°56'0 0.0
2018-Feb-19 18:05N 46°05' W 122°56'0 0.1
2018-Feb-19 17:59N 46°05' W 122°56'0 0.0
2018-Feb-19 17:26N 46°05' W 122°56'0 0.0
2018-Feb-19 16:59N 46°05' W 122°56'0 0.0
2018-Feb-19 16:29N 46°05' W 122°56'0 0.0
2018-Feb-19 15:59N 46°05' W 122°56'0 0.0
2018-Feb-19 15:26N 46°05' W 122°56'0 0.0
2018-Feb-19 14:59N 46°05' W 122°56'0 0.0
2018-Feb-19 14:17N 46°05' W 122°56'0 0.0
2018-Feb-19 13:59N 46°05' W 122°56'0 0.0
2018-Feb-19 13:29N 46°05' W 122°56'0 0.0
2018-Feb-19 12:59N 46°05' W 122°56'0 0.0
2018-Feb-19 12:20N 46°05' W 122°56'0 0.0
2018-Feb-19 11:53N 46°05' W 122°56'0 0.0
2018-Feb-19 10:44N 46°05' W 122°56'0 0.0
2018-Feb-19 10:29N 46°05' W 122°56'0 0.0
2018-Feb-19 09:59N 46°05' W 122°56'0 0.0
2018-Feb-19 09:08N 46°05' W 122°56'0 0.0
2018-Feb-19 08:59N 46°05' W 122°56'0 0.0
2018-Feb-19 08:23N 46°05' W 122°56'0 0.0
2018-Feb-19 07:41N 46°05' W 122°56'0 0.0
2018-Feb-19 07:29N 46°05' W 122°56'0 0.0
2018-Feb-19 06:56N 46°05' W 122°56'0 0.0
2018-Feb-19 06:29N 46°05' W 122°56'0 0.0
2018-Feb-19 05:59N 46°05' W 122°56'0 0.0
2018-Feb-19 05:11N 46°05' W 122°56'0 0.0
2018-Feb-19 04:59N 46°05' W 122°56'0 0.0
2018-Feb-19 04:26N 46°05' W 122°56'0 0.0
2018-Feb-19 03:59N 46°05' W 122°56'0 0.0
2018-Feb-19 03:29N 46°05' W 122°56'0 0.0
2018-Feb-19 02:59N 46°05' W 122°56'0 0.0
2018-Feb-19 02:29N 46°05' W 122°56'0 0.0
2018-Feb-19 01:59N 46°05' W 122°56'0 0.0
2018-Feb-19 01:23N 46°05' W 122°56'0 0.0
2018-Feb-19 00:44N 46°05' W 122°56'0 0.0
2018-Feb-19 00:23N 46°05' W 122°56'0 0.0
2018-Feb-18 23:59N 46°05' W 122°56'0 0.0
2018-Feb-18 23:29N 46°05' W 122°56'0 0.0
2018-Feb-18 22:56N 46°05' W 122°56'0 0.0
2018-Feb-18 22:29N 46°05' W 122°56'0 0.0
2018-Feb-18 21:56N 46°05' W 122°56'0 0.0
2018-Feb-18 21:20N 46°05' W 122°56'0 0.0
2018-Feb-18 20:59N 46°05' W 122°56'0 0.0
2018-Feb-18 20:26N 46°05' W 122°56'0 0.0
2018-Feb-18 19:56N 46°05' W 122°56'0 0.0
2018-Feb-18 19:26N 46°05' W 122°56'0 0.0
2018-Feb-18 18:59N 46°05' W 122°56'0 0.0
2018-Feb-18 18:26N 46°05' W 122°56'0 0.0
2018-Feb-18 17:59N 46°05' W 122°56'0 0.0
2018-Feb-18 17:29N 46°05' W 122°56'0 0.0
2018-Feb-18 16:59N 46°05' W 122°56'0 0.0
2018-Feb-18 16:29N 46°05' W 122°56'0 0.0
2018-Feb-18 15:59N 46°05' W 122°56'0 0.0
2018-Feb-18 15:29N 46°05' W 122°56'0 0.0
2018-Feb-18 14:56N 46°05' W 122°56'0 0.0
2018-Feb-18 14:29N 46°05' W 122°56'0 0.0
2018-Feb-18 13:59N 46°05' W 122°56'0 0.0
2018-Feb-18 13:29N 46°05' W 122°56'0 0.0
2018-Feb-18 12:59N 46°05' W 122°56'0 0.0
2018-Feb-18 12:29N 46°05' W 122°56'0 0.0
2018-Feb-18 11:59N 46°05' W 122°56'0 0.0
2018-Feb-18 11:29N 46°05' W 122°56'0 0.0
2018-Feb-18 10:56N 46°05' W 122°56'0 0.0
2018-Feb-18 10:29N 46°05' W 122°56'0 0.0
2018-Feb-18 09:47N 46°05' W 122°56'0 0.0
2018-Feb-18 09:29N 46°05' W 122°56'0 0.0
2018-Feb-18 08:56N 46°05' W 122°56'0 0.0
2018-Feb-18 08:29N 46°05' W 122°56'0 0.0
2018-Feb-18 07:44N 46°05' W 122°56'0 0.0
2018-Feb-18 07:26N 46°05' W 122°56'0 0.0
2018-Feb-18 06:59N 46°05' W 122°56'0 0.0
2018-Feb-18 06:29N 46°05' W 122°56'0 0.0
2018-Feb-18 05:59N 46°05' W 122°56'0 0.0
2018-Feb-18 05:26N 46°05' W 122°56'0 0.0
2018-Feb-18 04:53N 46°05' W 122°56'0 0.0
2018-Feb-18 04:29N 46°05' W 122°56'0 0.0
2018-Feb-18 03:59N 46°05' W 122°56'0 0.0
2018-Feb-18 03:29N 46°05' W 122°56'0 0.0
2018-Feb-18 02:59N 46°05' W 122°56'0 0.0
2018-Feb-18 02:26N 46°05' W 122°56'0 0.0
2018-Feb-18 01:59N 46°05' W 122°56'0 0.0
2018-Feb-18 01:29N 46°05' W 122°56'0 0.0
2018-Feb-18 00:59N 46°05' W 122°56'0 0.0
2018-Feb-18 00:11N 46°05' W 122°56'0 0.0
2018-Feb-17 23:47N 46°05' W 122°56'0 0.0
2018-Feb-17 23:30N 46°05' W 122°56'0 0.0
2018-Feb-17 22:56N 46°05' W 122°56'0 0.0
2018-Feb-17 22:29N 46°05' W 122°56'0 0.0
2018-Feb-17 21:59N 46°05' W 122°56'0 0.0
2018-Feb-17 21:29N 46°05' W 122°56'0 0.0
2018-Feb-17 20:59N 46°05' W 122°56'0 0.0
2018-Feb-17 20:29N 46°05' W 122°56'0 0.0
2018-Feb-17 19:50N 46°05' W 122°56'0 0.0
2018-Feb-17 19:26N 46°05' W 122°56'0 0.0
2018-Feb-17 18:29N 46°05' W 122°56'0 0.0
2018-Feb-17 18:00N 46°05' W 122°56'0 0.0
2018-Feb-17 17:29N 46°05' W 122°56'0 0.0
2018-Feb-17 16:59N 46°05' W 122°56'0 0.0
2018-Feb-17 16:29N 46°05' W 122°56'0 0.0
2018-Feb-17 15:56N 46°05' W 122°56'0 0.0
2018-Feb-17 15:28N 46°05' W 122°56'0 0.0
2018-Feb-17 14:59N 46°05' W 122°56'0 0.0
2018-Feb-17 14:20N 46°05' W 122°56'0 0.0
2018-Feb-17 13:59N 46°05' W 122°56'0 0.0
2018-Feb-17 13:26N 46°05' W 122°56'0 0.0
2018-Feb-17 12:35N 46°05' W 122°56'0 0.0
2018-Feb-17 10:23N 46°05' W 122°56'0 0.0
2018-Feb-17 09:59N 46°05' W 122°56'0 0.0
2018-Feb-17 09:26N 46°05' W 122°56'0 0.0
2018-Feb-17 08:56N 46°05' W 122°56'0 0.0
2018-Feb-17 08:29N 46°05' W 122°56'0 0.0
2018-Feb-17 07:47N 46°05' W 122°56'0 0.0
2018-Feb-17 07:29N 46°05' W 122°56'0 0.0
2018-Feb-17 06:59N 46°05' W 122°56'0 0.0
2018-Feb-17 06:29N 46°05' W 122°56'0 0.0
2018-Feb-17 05:59N 46°05' W 122°56'0 0.0
2018-Feb-17 05:29N 46°05' W 122°56'0 0.0
2018-Feb-17 04:55N 46°05' W 122°56'0 0.0
2018-Feb-17 04:26N 46°05' W 122°56'0 0.0
2018-Feb-17 03:35N 46°05' W 122°56'0 0.0
2018-Feb-17 03:14N 46°05' W 122°56'0 0.0
2018-Feb-17 02:55N 46°05' W 122°56'0 0.0
2018-Feb-17 02:26N 46°05' W 122°56'0 0.0
2018-Feb-17 01:59N 46°05' W 122°56'0 0.0
2018-Feb-17 01:16N 46°05' W 122°56'0 0.0
2018-Feb-17 00:59N 46°05' W 122°56'0 0.0
2018-Feb-17 00:29N 46°05' W 122°56'0 0.0
2018-Feb-16 23:59N 46°05' W 122°56'0 0.0
2018-Feb-16 23:26N 46°05' W 122°56'0 0.0
2018-Feb-16 22:56N 46°05' W 122°56'0 0.0
2018-Feb-16 22:29N 46°05' W 122°56'0 0.0
2018-Feb-16 21:53N 46°05' W 122°56'0 0.0
2018-Feb-16 21:28N 46°05' W 122°56'0 0.0
2018-Feb-16 20:44N 46°05' W 122°56'0 0.0
2018-Feb-16 20:16N 46°05' W 122°56'0 0.0
2018-Feb-16 19:44N 46°05' W 122°56'0 0.0
2018-Feb-16 19:20N 46°05' W 122°56'0 0.0
2018-Feb-16 18:58N 46°05' W 122°56'0 0.0
2018-Feb-16 18:28N 46°05' W 122°56'0 0.0
2018-Feb-16 17:59N 46°05' W 122°56'0 0.0
2018-Feb-16 17:29N 46°05' W 122°56'0 0.0
2018-Feb-16 16:59N 46°05' W 122°56'0 0.0
2018-Feb-16 16:04N 46°05' W 122°56'0 0.0
2018-Feb-16 15:49N 46°05' W 122°56'0 0.0
2018-Feb-16 15:29N 46°05' W 122°56'0 0.0
2018-Feb-16 14:58N 46°05' W 122°56'0 0.0
2018-Feb-16 14:23N 46°05' W 122°56'0 0.0
2018-Feb-16 13:59N 46°05' W 122°56'0 0.0
2018-Feb-16 13:28N 46°05' W 122°56'0 0.0
2018-Feb-16 12:58N 46°05' W 122°56'0 0.0
2018-Feb-16 12:28N 46°05' W 122°56'0 0.0
2018-Feb-16 11:47N 46°05' W 122°56'0 0.0
2018-Feb-16 11:29N 46°05' W 122°56'0 0.0
2018-Feb-16 10:59N 46°05' W 122°56'0 0.0
2018-Feb-16 10:22N 46°05' W 122°56'0 0.0
2018-Feb-16 08:58N 46°05' W 122°56'0 0.0
2018-Feb-16 08:28N 46°05' W 122°56'0 0.0
2018-Feb-16 07:58N 46°05' W 122°56'0 0.0
2018-Feb-16 07:28N 46°05' W 122°56'0 0.0
2018-Feb-16 06:58N 46°05' W 122°56'0 0.0
2018-Feb-16 06:29N 46°05' W 122°56'0 0.0
2018-Feb-16 05:58N 46°05' W 122°56'0 0.0
2018-Feb-16 05:25N 46°05' W 122°56'0 0.0
2018-Feb-16 04:52N 46°05' W 122°56'0 0.0
2018-Feb-16 04:28N 46°05' W 122°56'0 0.0
2018-Feb-16 03:49N 46°05' W 122°56'0 0.0
2018-Feb-16 03:28N 46°05' W 122°56'0 0.0
2018-Feb-16 02:25N 46°05' W 122°56'0 0.0
2018-Feb-16 01:58N 46°05' W 122°56'0 0.0
2018-Feb-16 01:25N 46°05' W 122°56'0 0.0
2018-Feb-16 00:58N 46°05' W 122°56'0 0.0
2018-Feb-16 00:19N 46°05' W 122°56'0 0.0
2018-Feb-15 23:55N 46°05' W 122°56'0 0.0
2018-Feb-15 23:28N 46°05' W 122°56'0 0.0
2018-Feb-15 22:58N 46°05' W 122°56'0 0.0
2018-Feb-15 22:25N 46°05' W 122°56'0 0.0
2018-Feb-15 21:52N 46°05' W 122°56'0 0.0
2018-Feb-15 21:28N 46°05' W 122°56'0 0.0
2018-Feb-15 20:58N 46°05' W 122°56'0 0.0
2018-Feb-15 20:10N 46°05' W 122°56'0 0.0
2018-Feb-15 19:52N 46°05' W 122°56'0 0.0
2018-Feb-15 19:25N 46°05' W 122°56'0 0.0
2018-Feb-15 18:53N 46°05' W 122°56'0 0.0
2018-Feb-15 18:13N 46°05' W 122°56'0 0.0
2018-Feb-15 17:58N 46°05' W 122°56'0 0.0
2018-Feb-15 17:19N 46°05' W 122°56'0 0.0
2018-Feb-15 16:55N 46°05' W 122°56'0 0.0
2018-Feb-15 16:28N 46°05' W 122°56'0 0.0
2018-Feb-15 15:58N 46°05' W 122°56'0 0.0
2018-Feb-15 15:28N 46°05' W 122°56'0 0.0
2018-Feb-15 14:58N 46°05' W 122°56'0 0.0
2018-Feb-15 14:19N 46°05' W 122°56'0 0.0
2018-Feb-15 13:46N 46°05' W 122°56'0 0.0
2018-Feb-15 13:13N 46°05' W 122°56'0 0.0
2018-Feb-15 12:55N 46°05' W 122°56'0 0.0
2018-Feb-15 12:28N 46°05' W 122°56'0 0.0
2018-Feb-15 10:52N 46°05' W 122°56'0 0.0
2018-Feb-15 10:10N 46°05' W 122°56'0 0.0
2018-Feb-15 09:58N 46°05' W 122°56'0 0.0
2018-Feb-15 09:28N 46°05' W 122°56'0 0.0
2018-Feb-15 08:58N 46°05' W 122°56'0 0.0
2018-Feb-15 08:25N 46°05' W 122°56'0 0.0
2018-Feb-15 07:55N 46°05' W 122°56'0 0.0
2018-Feb-15 07:22N 46°05' W 122°56'0 0.0
2018-Feb-15 06:52N 46°05' W 122°56'0 0.0
2018-Feb-15 06:25N 46°05' W 122°56'0 0.0
2018-Feb-15 05:58N 46°05' W 122°56'0 0.0
2018-Feb-15 05:28N 46°05' W 122°56'0 0.0
2018-Feb-15 04:58N 46°05' W 122°56'0 0.0
2018-Feb-15 04:28N 46°05' W 122°56'0 0.0
2018-Feb-15 03:49N 46°05' W 122°56'0 0.0
2018-Feb-15 03:28N 46°05' W 122°56'0 0.0
2018-Feb-15 02:55N 46°05' W 122°56'0 0.0
2018-Feb-15 02:16N 46°05' W 122°56'0 0.0
2018-Feb-15 01:55N 46°05' W 122°56'0 0.0
2018-Feb-15 01:28N 46°05' W 122°56'0 0.0
2018-Feb-15 00:55N 46°05' W 122°56'0 0.0
2018-Feb-15 00:28N 46°05' W 122°56'0 0.0
2018-Feb-14 23:55N 46°05' W 122°56'0 0.0
2018-Feb-14 23:28N 46°05' W 122°56'0 0.0
2018-Feb-14 22:58N 46°05' W 122°56'0 0.0
2018-Feb-14 22:25N 46°05' W 122°56'0 0.0
2018-Feb-14 21:52N 46°05' W 122°56'0 0.0
2018-Feb-14 21:28N 46°05' W 122°56'0 0.0
2018-Feb-14 20:55N 46°05' W 122°56'0 0.0
2018-Feb-14 20:22N 46°05' W 122°56'0 0.0
2018-Feb-14 19:52N 46°05' W 122°56'0 0.0
2018-Feb-14 19:22N 46°05' W 122°56'0 0.0
2018-Feb-14 18:52N 46°05' W 122°56'0 0.0
2018-Feb-14 18:28N 46°05' W 122°56'0 0.0
2018-Feb-14 17:55N 46°05' W 122°56'0 0.0
2018-Feb-14 17:28N 46°05' W 122°56'0 0.0
2018-Feb-14 16:49N 46°05' W 122°56'0 0.0
2018-Feb-14 16:28N 46°05' W 122°56'0 0.0
2018-Feb-14 15:37N 46°05' W 122°56'0 0.1
2018-Feb-14 15:25N 46°05' W 122°56'0 0.0
2018-Feb-14 14:58N 46°05' W 122°56'0 0.0
2018-Feb-14 14:28N 46°05' W 122°56'0 0.0
2018-Feb-14 13:58N 46°05' W 122°56'0 0.0
2018-Feb-14 13:25N 46°05' W 122°56'0 0.0
2018-Feb-14 12:49N 46°05' W 122°56'0 0.0
2018-Feb-14 12:25N 46°05' W 122°56'0 0.0
2018-Feb-14 11:49N 46°05' W 122°56'0 0.0
2018-Feb-14 11:25N 46°05' W 122°56'0 0.0
2018-Feb-14 10:46N 46°05' W 122°56'0 0.0
2018-Feb-14 10:25N 46°05' W 122°56'0 0.0
2018-Feb-14 09:58N 46°05' W 122°56'0 0.0
2018-Feb-14 09:28N 46°05' W 122°56'0 0.0
2018-Feb-14 08:58N 46°05' W 122°56'0 0.0
2018-Feb-14 08:28N 46°05' W 122°56'0 0.0
2018-Feb-14 07:58N 46°05' W 122°56'0 0.0
2018-Feb-14 07:28N 46°05' W 122°56'0 0.0
2018-Feb-14 06:58N 46°05' W 122°56'0 0.0
2018-Feb-14 06:25N 46°05' W 122°56'0 0.0
2018-Feb-14 05:58N 46°05' W 122°56'0 0.0
2018-Feb-14 05:28N 46°05' W 122°56'0 0.0
2018-Feb-14 04:52N 46°05' W 122°56'0 0.0
2018-Feb-14 04:28N 46°05' W 122°56'0 0.0
2018-Feb-14 03:58N 46°05' W 122°56'0 0.0
2018-Feb-14 03:28N 46°05' W 122°56'0 0.0
2018-Feb-14 02:55N 46°05' W 122°56'0 0.0
2018-Feb-14 02:25N 46°05' W 122°56'0 0.0
2018-Feb-14 01:58N 46°05' W 122°56'0 0.0
2018-Feb-14 01:28N 46°05' W 122°56'0 0.0
2018-Feb-14 00:58N 46°05' W 122°56'0 0.0
2018-Feb-14 00:10N 46°05' W 122°56'0 0.0
2018-Feb-13 23:58N 46°05' W 122°56'0 0.0
2018-Feb-13 23:22N 46°05' W 122°56'0 0.0
2018-Feb-13 22:55N 46°05' W 122°56'0 0.0
2018-Feb-13 22:28N 46°05' W 122°56'0 0.0
2018-Feb-13 21:19N 46°05' W 122°56'0 0.0
2018-Feb-13 20:34N 46°05' W 122°56'0 0.1
2018-Feb-13 20:28N 46°05' W 122°56'0 0.0
2018-Feb-13 19:58N 46°05' W 122°56'0 0.0
2018-Feb-13 19:28N 46°05' W 122°56'0 0.0
2018-Feb-13 18:55N 46°05' W 122°56'0 0.0
2018-Feb-13 18:16N 46°05' W 122°56'0 0.0
2018-Feb-13 17:13N 46°05' W 122°56'0 0.0
2018-Feb-13 16:55N 46°05' W 122°56'0 0.0
2018-Feb-13 16:28N 46°05' W 122°56'0 0.0
2018-Feb-13 15:40N 46°05' W 122°56'0 0.0
2018-Feb-13 15:19N 46°05' W 122°56'0 0.0
2018-Feb-13 14:49N 46°05' W 122°56'0 0.0
2018-Feb-13 14:28N 46°05' W 122°56'0 0.0
2018-Feb-13 13:58N 46°05' W 122°56'0 0.0
2018-Feb-13 13:28N 46°05' W 122°56'0 0.0
2018-Feb-13 12:43N 46°05' W 122°56'0 0.0
2018-Feb-13 12:28N 46°05' W 122°56'0 0.0
2018-Feb-13 11:55N 46°05' W 122°56'0 0.0
2018-Feb-13 11:28N 46°05' W 122°56'0 0.0
2018-Feb-13 10:52N 46°05' W 122°56'0 0.0
2018-Feb-13 10:22N 46°05' W 122°56'0 0.0
2018-Feb-13 09:58N 46°05' W 122°56'0 0.0
2018-Feb-13 09:28N 46°05' W 122°56'0 0.0
2018-Feb-13 08:58N 46°05' W 122°56'  

Dump ship's entire track history